Time,TemperatureF,DewpointF,PressureIn,WindDirection,WindDirectionDegrees,WindSpeedMPH,WindSpeedGustMPH,Humidity,HourlyPrecipIn,Conditions,Clouds,dailyrainin,SoftwareType,DateUTC
2013-07-24 00:01:00,65.7,63.9,29.73,WNW,292,1.7,-999.0,94,-99.99,,,0.00,Acu-Link.com,2013-07-24 04:01:00,
2013-07-24 00:16:00,65.5,64.0,29.73,SE,135,0.0,-999.0,95,-99.99,,,0.00,Acu-Link.com,2013-07-24 04:16:00,
2013-07-24 00:31:00,65.1,63.9,29.73,WSW,247,1.7,-999.0,96,-99.99,,,0.00,Acu-Link.com,2013-07-24 04:31:00,
2013-07-24 00:46:00,65.3,64.7,29.74,SW,225,2.2,-999.0,98,-99.99,,,0.00,Acu-Link.com,2013-07-24 04:46:00,
2013-07-24 01:02:00,65.7,65.1,29.73,West,270,3.2,-999.0,98,-99.99,,,0.00,Acu-Link.com,2013-07-24 05:02:00,
2013-07-24 01:17:00,65.3,64.4,29.74,SSW,202,1.1,-999.0,97,-99.99,,,0.00,Acu-Link.com,2013-07-24 05:17:00,
2013-07-24 01:32:00,65.5,64.6,29.74,WSW,247,0.0,-999.0,97,-99.99,,,0.00,Acu-Link.com,2013-07-24 05:32:00,
2013-07-24 01:47:00,65.1,64.2,29.73,WSW,247,0.0,-999.0,97,-99.99,,,0.00,Acu-Link.com,2013-07-24 05:47:00,
2013-07-24 02:03:00,65.1,64.2,29.74,WSW,247,0.0,-999.0,97,-99.99,,,0.00,Acu-Link.com,2013-07-24 06:03:00,
2013-07-24 02:18:00,64.8,64.2,29.72,West,270,0.0,-999.0,98,-99.99,,,0.00,Acu-Link.com,2013-07-24 06:18:00,
2013-07-24 02:33:00,64.6,64.0,29.72,ESE,112,0.0,-999.0,98,-99.99,,,0.00,Acu-Link.com,2013-07-24 06:33:00,
2013-07-24 02:49:00,64.2,63.6,29.72,SE,135,0.0,-999.0,98,-99.99,,,0.00,Acu-Link.com,2013-07-24 06:49:00,
2013-07-24 03:04:00,64.0,63.7,29.70,NW,315,0.0,-999.0,99,-99.99,,,0.00,Acu-Link.com,2013-07-24 07:04:00,
2013-07-24 03:19:00,64.0,63.7,29.70,SE,135,0.0,-999.0,99,-99.99,,,0.00,Acu-Link.com,2013-07-24 07:19:00,
2013-07-24 03:34:00,63.7,63.4,29.69,North,0,0.0,-999.0,99,-99.99,,,0.00,Acu-Link.com,2013-07-24 07:34:00,
2013-07-24 03:50:00,63.5,63.2,29.69,West,270,0.0,-999.0,99,-99.99,,,0.00,Acu-Link.com,2013-07-24 07:50:00,
2013-07-24 04:05:00,63.5,63.2,29.68,NW,315,0.0,-999.0,99,-99.99,,,0.00,Acu-Link.com,2013-07-24 08:05:00,
2013-07-24 04:20:00,63.5,63.2,29.69,West,270,0.0,-999.0,99,-99.99,,,0.00,Acu-Link.com,2013-07-24 08:20:00,
2013-07-24 04:35:00,63.7,63.4,29.69,West,270,5.8,-999.0,99,-99.99,,,0.00,Acu-Link.com,2013-07-24 08:35:00,
2013-07-24 04:51:00,63.9,63.6,29.69,WSW,247,2.2,-999.0,99,-99.99,,,0.00,Acu-Link.com,2013-07-24 08:51:00,
2013-07-24 05:06:00,64.8,64.5,29.69,WSW,247,2.2,-999.0,99,-99.99,,,0.00,Acu-Link.com,2013-07-24 09:06:00,
2013-07-24 05:21:00,65.1,64.8,29.69,SW,225,2.2,-999.0,99,-99.99,,,0.00,Acu-Link.com,2013-07-24 09:21:00,
2013-07-24 06:07:00,66.2,65.9,29.70,WSW,247,4.2,-999.0,99,-99.99,,,0.00,Acu-Link.com,2013-07-24 10:07:00,
2013-07-24 06:22:00,67.1,66.5,29.70,WSW,247,4.7,-999.0,98,-99.99,,,0.00,Acu-Link.com,2013-07-24 10:22:00,
2013-07-24 06:37:00,67.6,66.7,29.70,WSW,247,5.3,-999.0,97,-99.99,,,0.00,Acu-Link.com,2013-07-24 10:37:00,
2013-07-24 06:52:00,67.8,66.3,29.70,WSW,247,6.3,-999.0,95,-99.99,,,0.00,Acu-Link.com,2013-07-24 10:52:00,
2013-07-24 07:07:00,68.7,66.0,29.70,West,270,4.2,-999.0,91,-99.99,,,0.00,Acu-Link.com,2013-07-24 11:07:00,
2013-07-24 07:23:00,70.3,65.2,29.70,SSW,202,3.7,-999.0,84,-99.99,,,0.00,Acu-Link.com,2013-07-24 11:23:00,
2013-07-24 07:38:00,69.8,62.3,29.71,WNW,292,4.2,-999.0,77,-99.99,,,0.00,Acu-Link.com,2013-07-24 11:38:00,
2013-07-24 07:53:00,68.4,62.7,29.71,West,270,4.7,-999.0,82,-99.99,,,0.00,Acu-Link.com,2013-07-24 11:53:00,
2013-07-24 08:08:00,67.8,61.7,29.72,West,270,4.7,-999.0,81,-99.99,,,0.00,Acu-Link.com,2013-07-24 12:08:00,
2013-07-24 08:24:00,68.9,60.3,29.71,West,270,2.7,-999.0,74,-99.99,,,0.00,Acu-Link.com,2013-07-24 12:24:00,
2013-07-24 08:39:00,72.9,62.5,29.72,WSW,247,3.2,-999.0,70,-99.99,,,0.00,Acu-Link.com,2013-07-24 12:39:00,
2013-07-24 08:54:00,71.2,62.5,29.72,SSW,202,2.7,-999.0,74,-99.99,,,0.00,Acu-Link.com,2013-07-24 12:54:00,
2013-07-24 09:10:00,72.0,63.2,29.72,WNW,292,3.2,-999.0,74,-99.99,,,0.00,Acu-Link.com,2013-07-24 13:10:00,
2013-07-24 09:25:00,72.0,62.9,29.74,West,270,2.2,-999.0,73,-99.99,,,0.00,Acu-Link.com,2013-07-24 13:25:00,
2013-07-24 09:40:00,72.0,64.4,29.73,WSW,247,2.2,-999.0,77,-99.99,,,0.00,Acu-Link.com,2013-07-24 13:40:00,
2013-07-24 09:56:00,72.3,65.4,29.74,East,90,1.7,-999.0,79,-99.99,,,0.00,Acu-Link.com,2013-07-24 13:56:00,
2013-07-24 10:26:00,74.3,67.7,29.74,NW,315,5.3,-999.0,80,-99.99,,,0.00,Acu-Link.com,2013-07-24 14:26:00,
2013-07-24 10:41:00,73.2,66.3,29.74,NE,45,1.7,-999.0,79,-99.99,,,0.00,Acu-Link.com,2013-07-24 14:41:00,
2013-07-24 10:56:00,72.3,66.8,29.75,West,270,2.7,-999.0,83,-99.99,,,0.00,Acu-Link.com,2013-07-24 14:56:00,
2013-07-24 11:12:00,73.9,67.0,29.75,NW,315,2.2,-999.0,79,-99.99,,,0.00,Acu-Link.com,2013-07-24 15:12:00,
2013-07-24 11:27:00,77.0,67.7,29.73,NNW,337,5.8,-999.0,73,-99.99,,,0.00,Acu-Link.com,2013-07-24 15:27:00,
2013-07-24 11:42:00,73.9,66.2,29.73,ENE,67,1.1,-999.0,77,-99.99,,,0.00,Acu-Link.com,2013-07-24 15:42:00,
2013-07-24 11:57:00,73.4,66.5,29.73,ESE,112,2.2,-999.0,79,-99.99,,,0.00,Acu-Link.com,2013-07-24 15:57:00,
2013-07-24 12:13:00,74.5,67.2,29.74,South,180,1.7,-999.0,78,-99.99,,,0.00,Acu-Link.com,2013-07-24 16:13:00,
2013-07-24 12:28:00,75.9,67.8,29.74,East,90,3.7,-999.0,76,-99.99,,,0.00,Acu-Link.com,2013-07-24 16:28:00,
2013-07-24 12:43:00,75.7,66.8,29.72,WNW,292,2.7,-999.0,74,-99.99,,,0.00,Acu-Link.com,2013-07-24 16:43:00,
2013-07-24 12:58:00,75.4,66.5,29.73,NNE,22,2.2,-999.0,74,-99.99,,,0.00,Acu-Link.com,2013-07-24 16:58:00,
2013-07-24 13:13:00,76.3,67.0,29.73,ENE,67,3.2,-999.0,73,-99.99,,,0.00,Acu-Link.com,2013-07-24 17:13:00,
2013-07-24 13:28:00,75.9,67.8,29.72,West,270,1.7,-999.0,76,-99.99,,,0.00,Acu-Link.com,2013-07-24 17:28:00,
2013-07-24 13:44:00,74.1,67.5,29.73,NNW,337,2.2,-999.0,80,-99.99,,,0.00,Acu-Link.com,2013-07-24 17:44:00,
2013-07-24 13:59:00,75.2,68.6,29.72,West,270,3.7,-999.0,80,-99.99,,,0.00,Acu-Link.com,2013-07-24 17:59:00,
2013-07-24 14:14:00,77.0,67.3,29.71,WSW,247,2.7,-999.0,72,-99.99,,,0.00,Acu-Link.com,2013-07-24 18:14:00,
2013-07-24 14:29:00,78.3,67.7,29.71,SW,225,2.7,-999.0,70,-99.99,,,0.00,Acu-Link.com,2013-07-24 18:29:00,
2013-07-24 14:44:00,78.8,67.3,29.71,NNW,337,4.2,-999.0,68,-99.99,,,0.00,Acu-Link.com,2013-07-24 18:44:00,
2013-07-24 15:00:00,78.1,66.7,29.72,West,270,4.2,-999.0,68,-99.99,,,0.00,Acu-Link.com,2013-07-24 19:00:00,
2013-07-24 15:15:00,78.6,65.4,29.72,West,270,2.2,-999.0,64,-99.99,,,0.00,Acu-Link.com,2013-07-24 19:15:00,
2013-07-24 15:30:00,78.4,62.9,29.72,North,0,6.8,-999.0,59,-99.99,,,0.00,Acu-Link.com,2013-07-24 19:30:00,
2013-07-24 15:45:00,79.3,65.6,29.71,West,270,3.2,-999.0,63,-99.99,,,0.00,Acu-Link.com,2013-07-24 19:45:00,
2013-07-24 16:01:00,79.2,67.3,29.71,WSW,247,3.7,-999.0,67,-99.99,,,0.00,Acu-Link.com,2013-07-24 20:01:00,
2013-07-24 16:16:00,77.9,65.2,29.71,WSW,247,2.7,-999.0,65,-99.99,,,0.00,Acu-Link.com,2013-07-24 20:16:00,
2013-07-24 16:47:00,78.6,65.8,29.71,WSW,247,2.2,-999.0,65,-99.99,,,0.00,Acu-Link.com,2013-07-24 20:47:00,
2013-07-24 17:02:00,80.6,63.4,29.71,West,270,2.2,-999.0,56,-99.99,,,0.00,Acu-Link.com,2013-07-24 21:02:00,
2013-07-24 17:17:00,77.5,64.3,29.71,West,270,1.1,-999.0,64,-99.99,,,0.00,Acu-Link.com,2013-07-24 21:17:00,
2013-07-24 17:32:00,80.4,65.2,29.71,West,270,3.7,-999.0,60,-99.99,,,0.00,Acu-Link.com,2013-07-24 21:32:00,
2013-07-24 17:48:00,84.6,65.0,29.71,SW,225,2.2,-999.0,52,-99.99,,,0.00,Acu-Link.com,2013-07-24 21:48:00,
2013-07-24 18:03:00,86.4,65.5,29.71,West,270,1.7,-999.0,50,-99.99,,,0.00,Acu-Link.com,2013-07-24 22:03:00,
2013-07-24 18:18:00,83.7,63.6,29.71,NW,315,2.7,-999.0,51,-99.99,,,0.00,Acu-Link.com,2013-07-24 22:18:00,
2013-07-24 18:33:00,83.8,66.4,29.71,WSW,247,2.2,-999.0,56,-99.99,,,0.00,Acu-Link.com,2013-07-24 22:33:00,
2013-07-24 18:49:00,81.7,66.0,29.71,WNW,292,0.0,-999.0,59,-99.99,,,0.00,Acu-Link.com,2013-07-24 22:49:00,
2013-07-24 19:04:00,77.0,64.3,29.71,WSW,247,0.0,-999.0,65,-99.99,,,0.00,Acu-Link.com,2013-07-24 23:04:00,
2013-07-24 19:19:00,75.2,63.9,29.72,NW,315,1.1,-999.0,68,-99.99,,,0.00,Acu-Link.com,2013-07-24 23:19:00,
2013-07-24 19:35:00,72.9,64.9,29.71,NNW,337,0.0,-999.0,76,-99.99,,,0.00,Acu-Link.com,2013-07-24 23:35:00,
2013-07-24 19:50:00,72.5,65.6,29.73,West,270,0.0,-999.0,79,-99.99,,,0.00,Acu-Link.com,2013-07-24 23:50:00,
2013-07-24 20:05:00,70.9,65.5,29.74,NE,45,0.0,-999.0,83,-99.99,,,0.00,Acu-Link.com,2013-07-25 00:05:00,
2013-07-24 20:20:00,70.3,64.2,29.75,WNW,292,0.0,-999.0,81,-99.99,,,0.00,Acu-Link.com,2013-07-25 00:20:00,
2013-07-24 20:35:00,69.4,64.0,29.76,South,180,1.7,-999.0,83,-99.99,,,0.00,Acu-Link.com,2013-07-25 00:35:00,
2013-07-24 20:50:00,69.1,63.7,29.77,SE,135,3.2,-999.0,83,-99.99,,,0.00,Acu-Link.com,2013-07-25 00:50:00,
2013-07-24 21:05:00,69.3,63.9,29.77,East,90,2.7,-999.0,83,-99.99,,,0.00,Acu-Link.com,2013-07-25 01:05:00,
2013-07-24 21:20:00,68.9,62.5,29.77,NNW,337,3.2,-999.0,80,-99.99,,,0.00,Acu-Link.com,2013-07-25 01:20:00,
2013-07-24 21:36:00,69.4,61.9,29.78,WNW,292,4.7,-999.0,77,-99.99,,,0.00,Acu-Link.com,2013-07-25 01:36:00,
2013-07-24 21:51:00,69.1,62.7,29.79,ESE,112,0.0,-999.0,80,-99.99,,,0.00,Acu-Link.com,2013-07-25 01:51:00,
2013-07-24 22:06:00,68.9,62.8,29.79,NNW,337,1.1,-999.0,81,-99.99,,,0.00,Acu-Link.com,2013-07-25 02:06:00,
2013-07-24 22:21:00,68.4,62.3,29.80,South,180,1.7,-999.0,81,-99.99,,,0.00,Acu-Link.com,2013-07-25 02:21:00,
2013-07-24 22:37:00,68.0,61.6,29.81,ESE,112,1.1,-999.0,80,-99.99,,,0.00,Acu-Link.com,2013-07-25 02:37:00,
2013-07-24 22:52:00,68.2,62.1,29.82,NE,45,2.2,-999.0,81,-99.99,,,0.00,Acu-Link.com,2013-07-25 02:52:00,
2013-07-24 23:07:00,67.8,62.8,29.82,SSE,157,2.7,-999.0,84,-99.99,,,0.00,Acu-Link.com,2013-07-25 03:07:00,
2013-07-24 23:23:00,67.3,63.6,29.82,SSE,157,1.1,-999.0,88,-99.99,,,0.00,Acu-Link.com,2013-07-25 03:23:00,
2013-07-24 23:53:00,66.7,63.4,29.82,South,180,2.2,-999.0,89,-99.99,,,0.00,Acu-Link.com,2013-07-25 03:53:00,